sensor_id;sensor_type;location;lat;lon;timestamp;P1;durP1;ratioP1;P2;durP2;ratioP2
36411;SDS011;22445;52.100;5.176;2022-12-05T00:04:07;42.47;;;24.05;;
36411;SDS011;22445;52.100;5.176;2022-12-05T00:06:35;43.08;;;24.10;;
36411;SDS011;22445;52.100;5.176;2022-12-05T00:09:01;45.67;;;25.33;;
36411;SDS011;22445;52.100;5.176;2022-12-05T00:11:29;40.47;;;24.65;;
36411;SDS011;22445;52.100;5.176;2022-12-05T00:13:56;46.25;;;25.50;;
36411;SDS011;22445;52.100;5.176;2022-12-05T00:16:24;43.13;;;24.50;;
36411;SDS011;22445;52.100;5.176;2022-12-05T00:18:51;44.70;;;24.25;;
36411;SDS011;22445;52.100;5.176;2022-12-05T00:21:21;48.90;;;24.83;;
36411;SDS011;22445;52.100;5.176;2022-12-05T00:23:48;42.13;;;24.17;;
36411;SDS011;22445;52.100;5.176;2022-12-05T00:26:15;44.70;;;25.50;;
36411;SDS011;22445;52.100;5.176;2022-12-05T00:28:41;45.45;;;26.20;;
36411;SDS011;22445;52.100;5.176;2022-12-05T00:31:10;45.45;;;25.35;;
36411;SDS011;22445;52.100;5.176;2022-12-05T00:33:38;46.08;;;26.33;;
36411;SDS011;22445;52.100;5.176;2022-12-05T00:36:08;43.00;;;24.40;;
36411;SDS011;22445;52.100;5.176;2022-12-05T00:38:36;42.95;;;24.73;;
36411;SDS011;22445;52.100;5.176;2022-12-05T00:41:02;38.92;;;24.42;;
36411;SDS011;22445;52.100;5.176;2022-12-05T00:43:28;42.80;;;24.60;;
36411;SDS011;22445;52.100;5.176;2022-12-05T00:45:54;41.58;;;25.33;;
36411;SDS011;22445;52.100;5.176;2022-12-05T00:48:20;44.53;;;25.13;;
36411;SDS011;22445;52.100;5.176;2022-12-05T00:50:45;40.47;;;24.52;;
36411;SDS011;22445;52.100;5.176;2022-12-05T00:53:11;49.05;;;24.77;;
36411;SDS011;22445;52.100;5.176;2022-12-05T00:55:36;40.65;;;24.33;;
36411;SDS011;22445;52.100;5.176;2022-12-05T00:58:02;41.78;;;24.98;;
36411;SDS011;22445;52.100;5.176;2022-12-05T01:00:28;43.35;;;25.02;;
36411;SDS011;22445;52.100;5.176;2022-12-05T01:02:54;44.95;;;24.98;;
36411;SDS011;22445;52.100;5.176;2022-12-05T01:05:20;42.35;;;25.33;;
36411;SDS011;22445;52.100;5.176;2022-12-05T01:07:45;43.10;;;25.52;;
36411;SDS011;22445;52.100;5.176;2022-12-05T01:10:11;46.72;;;26.30;;
36411;SDS011;22445;52.100;5.176;2022-12-05T01:12:36;43.00;;;24.95;;
36411;SDS011;22445;52.100;5.176;2022-12-05T01:15:02;45.42;;;25.63;;
36411;SDS011;22445;52.100;5.176;2022-12-05T01:17:28;39.67;;;23.45;;
36411;SDS011;22445;52.100;5.176;2022-12-05T01:19:54;41.58;;;25.30;;
36411;SDS011;22445;52.100;5.176;2022-12-05T01:22:19;46.42;;;25.42;;
36411;SDS011;22445;52.100;5.176;2022-12-05T01:24:45;48.42;;;25.42;;
36411;SDS011;22445;52.100;5.176;2022-12-05T01:27:10;44.78;;;25.40;;
36411;SDS011;22445;52.100;5.176;2022-12-05T01:29:36;45.10;;;25.45;;
36411;SDS011;22445;52.100;5.176;2022-12-05T01:32:02;47.42;;;26.98;;
36411;SDS011;22445;52.100;5.176;2022-12-05T01:34:28;46.25;;;25.05;;
36411;SDS011;22445;52.100;5.176;2022-12-05T01:36:53;40.72;;;23.38;;
36411;SDS011;22445;52.100;5.176;2022-12-05T01:39:19;47.08;;;25.85;;
36411;SDS011;22445;52.100;5.176;2022-12-05T01:41:45;45.60;;;24.85;;
36411;SDS011;22445;52.100;5.176;2022-12-05T01:47:20;50.13;;;26.05;;
36411;SDS011;22445;52.100;5.176;2022-12-05T01:49:48;49.70;;;25.63;;
36411;SDS011;22445;52.100;5.176;2022-12-05T01:52:15;45.45;;;24.92;;
36411;SDS011;22445;52.100;5.176;2022-12-05T01:54:43;50.20;;;26.58;;
36411;SDS011;22445;52.100;5.176;2022-12-05T01:57:09;45.35;;;24.83;;
36411;SDS011;22445;52.100;5.176;2022-12-05T01:59:37;52.97;;;27.60;;
36411;SDS011;22445;52.100;5.176;2022-12-05T02:02:05;47.90;;;27.23;;
36411;SDS011;22445;52.100;5.176;2022-12-05T02:04:32;43.15;;;24.33;;
36411;SDS011;22445;52.100;5.176;2022-12-05T02:07:00;48.17;;;26.33;;
36411;SDS011;22445;52.100;5.176;2022-12-05T02:09:26;43.55;;;24.83;;
36411;SDS011;22445;52.100;5.176;2022-12-05T02:11:53;49.13;;;27.50;;
36411;SDS011;22445;52.100;5.176;2022-12-05T02:29:50;47.20;;;25.13;;
36411;SDS011;22445;52.100;5.176;2022-12-05T02:38:52;50.47;;;26.27;;
36411;SDS011;22445;52.100;5.176;2022-12-05T02:54:09;48.28;;;24.38;;
36411;SDS011;22445;52.100;5.176;2022-12-05T02:56:37;52.15;;;28.48;;
36411;SDS011;22445;52.100;5.176;2022-12-05T02:59:03;49.90;;;27.35;;
36411;SDS011;22445;52.100;5.176;2022-12-05T03:01:29;54.25;;;28.38;;
36411;SDS011;22445;52.100;5.176;2022-12-05T03:03:55;50.92;;;26.77;;
36411;SDS011;22445;52.100;5.176;2022-12-05T03:06:30;50.20;;;27.60;;
36411;SDS011;22445;52.100;5.176;2022-12-05T03:09:00;59.13;;;30.17;;
36411;SDS011;22445;52.100;5.176;2022-12-05T03:11:28;50.38;;;27.83;;
36411;SDS011;22445;52.100;5.176;2022-12-05T03:13:57;54.42;;;28.55;;
36411;SDS011;22445;52.100;5.176;2022-12-05T03:16:27;56.40;;;30.02;;
36411;SDS011;22445;52.100;5.176;2022-12-05T03:18:57;54.17;;;28.25;;
36411;SDS011;22445;52.100;5.176;2022-12-05T03:24:34;52.78;;;26.27;;
36411;SDS011;22445;52.100;5.176;2022-12-05T03:30:10;62.15;;;26.95;;
36411;SDS011;22445;52.100;5.176;2022-12-05T03:32:44;51.78;;;28.05;;
36411;SDS011;22445;52.100;5.176;2022-12-05T03:35:23;52.55;;;27.02;;
36411;SDS011;22445;52.100;5.176;2022-12-05T03:38:34;50.90;;;26.95;;
36411;SDS011;22445;52.100;5.176;2022-12-05T03:43:53;47.17;;;24.35;;
36411;SDS011;22445;52.100;5.176;2022-12-05T03:47:24;47.30;;;23.95;;
36411;SDS011;22445;52.100;5.176;2022-12-05T03:49:43;48.40;;;25.08;;
36411;SDS011;22445;52.100;5.176;2022-12-05T03:52:33;41.72;;;24.75;;
36411;SDS011;22445;52.100;5.176;2022-12-05T03:55:03;44.70;;;24.27;;
36411;SDS011;22445;52.100;5.176;2022-12-05T03:57:34;44.25;;;23.05;;
36411;SDS011;22445;52.100;5.176;2022-12-05T04:02:49;44.95;;;24.95;;
36411;SDS011;22445;52.100;5.176;2022-12-05T04:08:28;47.53;;;25.05;;
36411;SDS011;22445;52.100;5.176;2022-12-05T04:10:57;44.45;;;23.55;;
36411;SDS011;22445;52.100;5.176;2022-12-05T04:16:30;41.40;;;23.85;;
36411;SDS011;22445;52.100;5.176;2022-12-05T04:19:27;42.72;;;24.35;;
36411;SDS011;22445;52.100;5.176;2022-12-05T04:22:15;39.47;;;23.25;;
36411;SDS011;22445;52.100;5.176;2022-12-05T04:24:42;40.15;;;24.02;;
36411;SDS011;22445;52.100;5.176;2022-12-05T04:30:34;43.03;;;23.92;;
36411;SDS011;22445;52.100;5.176;2022-12-05T04:33:09;38.53;;;22.00;;
36411;SDS011;22445;52.100;5.176;2022-12-05T04:35:58;37.90;;;21.35;;
36411;SDS011;22445;52.100;5.176;2022-12-05T04:38:35;43.00;;;22.63;;
36411;SDS011;22445;52.100;5.176;2022-12-05T04:41:05;40.72;;;22.92;;
36411;SDS011;22445;52.100;5.176;2022-12-05T04:43:34;38.15;;;23.05;;
36411;SDS011;22445;52.100;5.176;2022-12-05T04:46:02;38.55;;;22.02;;
36411;SDS011;22445;52.100;5.176;2022-12-05T04:48:29;44.03;;;24.50;;
36411;SDS011;22445;52.100;5.176;2022-12-05T04:50:54;41.83;;;23.25;;
36411;SDS011;22445;52.100;5.176;2022-12-05T04:53:22;42.85;;;22.48;;
36411;SDS011;22445;52.100;5.176;2022-12-05T04:55:51;46.10;;;23.20;;
36411;SDS011;22445;52.100;5.176;2022-12-05T04:58:19;43.50;;;22.67;;
36411;SDS011;22445;52.100;5.176;2022-12-05T05:00:49;43.08;;;22.92;;
36411;SDS011;22445;52.100;5.176;2022-12-05T05:03:50;41.92;;;23.40;;
36411;SDS011;22445;52.100;5.176;2022-12-05T05:06:19;37.88;;;21.85;;
36411;SDS011;22445;52.100;5.176;2022-12-05T05:08:51;40.13;;;23.52;;
36411;SDS011;22445;52.100;5.176;2022-12-05T05:11:20;43.00;;;23.25;;
36411;SDS011;22445;52.100;5.176;2022-12-05T05:13:46;41.63;;;23.73;;
36411;SDS011;22445;52.100;5.176;2022-12-05T05:16:16;44.25;;;24.27;;
36411;SDS011;22445;52.100;5.176;2022-12-05T05:18:46;47.53;;;24.20;;
36411;SDS011;22445;52.100;5.176;2022-12-05T05:21:14;47.03;;;25.10;;
36411;SDS011;22445;52.100;5.176;2022-12-05T05:23:40;45.92;;;25.17;;
36411;SDS011;22445;52.100;5.176;2022-12-05T05:26:06;46.65;;;25.65;;
36411;SDS011;22445;52.100;5.176;2022-12-05T05:28:31;45.10;;;23.40;;
36411;SDS011;22445;52.100;5.176;2022-12-05T05:31:00;46.40;;;25.88;;
36411;SDS011;22445;52.100;5.176;2022-12-05T05:33:27;44.47;;;23.33;;
36411;SDS011;22445;52.100;5.176;2022-12-05T05:35:52;45.58;;;25.55;;
36411;SDS011;22445;52.100;5.176;2022-12-05T05:38:18;51.00;;;24.90;;
36411;SDS011;22445;52.100;5.176;2022-12-05T05:40:43;48.00;;;26.63;;
36411;SDS011;22445;52.100;5.176;2022-12-05T05:43:09;47.72;;;26.65;;
36411;SDS011;22445;52.100;5.176;2022-12-05T05:45:35;44.58;;;25.33;;
36411;SDS011;22445;52.100;5.176;2022-12-05T05:48:00;47.75;;;26.02;;
36411;SDS011;22445;52.100;5.176;2022-12-05T05:50:26;44.45;;;25.55;;
36411;SDS011;22445;52.100;5.176;2022-12-05T05:52:52;50.85;;;27.08;;
36411;SDS011;22445;52.100;5.176;2022-12-05T05:55:17;51.60;;;26.88;;
36411;SDS011;22445;52.100;5.176;2022-12-05T05:57:43;57.33;;;26.85;;
36411;SDS011;22445;52.100;5.176;2022-12-05T06:00:09;52.30;;;26.50;;
36411;SDS011;22445;52.100;5.176;2022-12-05T06:02:35;49.78;;;26.75;;
36411;SDS011;22445;52.100;5.176;2022-12-05T06:05:01;49.05;;;27.20;;
36411;SDS011;22445;52.100;5.176;2022-12-05T06:07:27;51.85;;;26.25;;
36411;SDS011;22445;52.100;5.176;2022-12-05T06:09:53;51.15;;;25.83;;
36411;SDS011;22445;52.100;5.176;2022-12-05T06:12:18;49.25;;;26.58;;
36411;SDS011;22445;52.100;5.176;2022-12-05T06:14:46;53.53;;;26.88;;
36411;SDS011;22445;52.100;5.176;2022-12-05T06:17:12;53.05;;;26.60;;
36411;SDS011;22445;52.100;5.176;2022-12-05T06:19:38;50.30;;;26.88;;
36411;SDS011;22445;52.100;5.176;2022-12-05T06:22:03;49.10;;;26.05;;
36411;SDS011;22445;52.100;5.176;2022-12-05T06:24:29;47.60;;;26.83;;
36411;SDS011;22445;52.100;5.176;2022-12-05T06:26:54;48.20;;;26.77;;
36411;SDS011;22445;52.100;5.176;2022-12-05T06:29:20;46.90;;;24.63;;
36411;SDS011;22445;52.100;5.176;2022-12-05T06:31:45;48.20;;;25.98;;
36411;SDS011;22445;52.100;5.176;2022-12-05T06:34:11;49.40;;;28.05;;
36411;SDS011;22445;52.100;5.176;2022-12-05T06:36:36;52.00;;;26.75;;
36411;SDS011;22445;52.100;5.176;2022-12-05T06:39:02;51.45;;;26.05;;
36411;SDS011;22445;52.100;5.176;2022-12-05T06:41:28;52.03;;;26.00;;
36411;SDS011;22445;52.100;5.176;2022-12-05T06:43:54;52.13;;;26.63;;
36411;SDS011;22445;52.100;5.176;2022-12-05T06:46:21;47.95;;;26.50;;
36411;SDS011;22445;52.100;5.176;2022-12-05T06:48:46;50.67;;;26.13;;
36411;SDS011;22445;52.100;5.176;2022-12-05T06:51:13;50.75;;;25.42;;
36411;SDS011;22445;52.100;5.176;2022-12-05T06:53:40;52.80;;;26.58;;
36411;SDS011;22445;52.100;5.176;2022-12-05T06:56:06;45.63;;;24.85;;
36411;SDS011;22445;52.100;5.176;2022-12-05T06:58:38;53.38;;;26.55;;
36411;SDS011;22445;52.100;5.176;2022-12-05T07:01:04;50.15;;;25.15;;
36411;SDS011;22445;52.100;5.176;2022-12-05T07:03:48;48.05;;;27.10;;
36411;SDS011;22445;52.100;5.176;2022-12-05T07:06:14;48.60;;;26.23;;
36411;SDS011;22445;52.100;5.176;2022-12-05T07:08:40;54.67;;;26.55;;
36411;SDS011;22445;52.100;5.176;2022-12-05T07:11:06;48.13;;;26.33;;
36411;SDS011;22445;52.100;5.176;2022-12-05T07:13:32;44.53;;;24.08;;
36411;SDS011;22445;52.100;5.176;2022-12-05T07:15:58;50.03;;;24.60;;
36411;SDS011;22445;52.100;5.176;2022-12-05T07:18:24;48.58;;;24.23;;
36411;SDS011;22445;52.100;5.176;2022-12-05T07:21:01;40.85;;;23.63;;
36411;SDS011;22445;52.100;5.176;2022-12-05T07:23:27;48.65;;;24.77;;
36411;SDS011;22445;52.100;5.176;2022-12-05T07:25:53;47.92;;;24.42;;
36411;SDS011;22445;52.100;5.176;2022-12-05T07:28:19;41.55;;;23.33;;
36411;SDS011;22445;52.100;5.176;2022-12-05T07:30:45;42.50;;;22.58;;
36411;SDS011;22445;52.100;5.176;2022-12-05T07:33:10;36.35;;;21.10;;
36411;SDS011;22445;52.100;5.176;2022-12-05T07:35:36;41.58;;;22.85;;
36411;SDS011;22445;52.100;5.176;2022-12-05T07:38:01;39.47;;;22.67;;
36411;SDS011;22445;52.100;5.176;2022-12-05T07:40:27;36.67;;;20.48;;
36411;SDS011;22445;52.100;5.176;2022-12-05T07:42:52;35.47;;;21.17;;
36411;SDS011;22445;52.100;5.176;2022-12-05T07:45:19;36.15;;;20.38;;
36411;SDS011;22445;52.100;5.176;2022-12-05T07:47:45;35.15;;;21.23;;
36411;SDS011;22445;52.100;5.176;2022-12-05T07:50:10;34.45;;;20.48;;
36411;SDS011;22445;52.100;5.176;2022-12-05T07:52:36;31.77;;;20.58;;
36411;SDS011;22445;52.100;5.176;2022-12-05T07:55:01;32.85;;;19.80;;
36411;SDS011;22445;52.100;5.176;2022-12-05T07:57:30;34.15;;;20.70;;
36411;SDS011;22445;52.100;5.176;2022-12-05T07:59:55;35.05;;;20.00;;
36411;SDS011;22445;52.100;5.176;2022-12-05T08:02:21;32.20;;;19.23;;
36411;SDS011;22445;52.100;5.176;2022-12-05T08:04:46;31.02;;;19.38;;
36411;SDS011;22445;52.100;5.176;2022-12-05T08:07:12;29.90;;;18.27;;
36411;SDS011;22445;52.100;5.176;2022-12-05T08:09:37;30.38;;;18.88;;
36411;SDS011;22445;52.100;5.176;2022-12-05T08:12:03;29.77;;;18.85;;
36411;SDS011;22445;52.100;5.176;2022-12-05T08:14:28;28.77;;;17.48;;
36411;SDS011;22445;52.100;5.176;2022-12-05T08:16:54;27.98;;;18.40;;
36411;SDS011;22445;52.100;5.176;2022-12-05T08:19:20;29.77;;;18.75;;
36411;SDS011;22445;52.100;5.176;2022-12-05T08:21:45;26.77;;;18.17;;
36411;SDS011;22445;52.100;5.176;2022-12-05T08:24:11;28.48;;;18.65;;
36411;SDS011;22445;52.100;5.176;2022-12-05T08:26:37;26.52;;;18.35;;
36411;SDS011;22445;52.100;5.176;2022-12-05T08:29:05;27.40;;;18.10;;
36411;SDS011;22445;52.100;5.176;2022-12-05T08:31:33;29.35;;;17.80;;
36411;SDS011;22445;52.100;5.176;2022-12-05T08:34:01;26.33;;;17.63;;
36411;SDS011;22445;52.100;5.176;2022-12-05T08:36:27;25.83;;;17.92;;
36411;SDS011;22445;52.100;5.176;2022-12-05T08:38:57;25.60;;;17.17;;
36411;SDS011;22445;52.100;5.176;2022-12-05T08:41:24;25.88;;;17.02;;
36411;SDS011;22445;52.100;5.176;2022-12-05T08:43:54;23.77;;;17.02;;
36411;SDS011;22445;52.100;5.176;2022-12-05T08:46:21;23.77;;;16.98;;
36411;SDS011;22445;52.100;5.176;2022-12-05T08:48:46;22.42;;;17.02;;
36411;SDS011;22445;52.100;5.176;2022-12-05T08:51:12;22.33;;;16.75;;
36411;SDS011;22445;52.100;5.176;2022-12-05T08:53:38;25.35;;;16.40;;
36411;SDS011;22445;52.100;5.176;2022-12-05T08:56:05;22.73;;;16.38;;
36411;SDS011;22445;52.100;5.176;2022-12-05T08:58:32;20.40;;;14.90;;
36411;SDS011;22445;52.100;5.176;2022-12-05T09:03:54;21.83;;;15.88;;
36411;SDS011;22445;52.100;5.176;2022-12-05T09:06:21;19.35;;;14.82;;
36411;SDS011;22445;52.100;5.176;2022-12-05T09:08:48;19.92;;;14.80;;
36411;SDS011;22445;52.100;5.176;2022-12-05T09:11:18;17.63;;;13.70;;
36411;SDS011;22445;52.100;5.176;2022-12-05T09:13:47;19.02;;;13.38;;
36411;SDS011;22445;52.100;5.176;2022-12-05T09:16:15;17.63;;;12.43;;
36411;SDS011;22445;52.100;5.176;2022-12-05T09:18:42;16.85;;;13.00;;
36411;SDS011;22445;52.100;5.176;2022-12-05T09:21:12;16.50;;;13.18;;
36411;SDS011;22445;52.100;5.176;2022-12-05T09:23:39;15.88;;;12.20;;
36411;SDS011;22445;52.100;5.176;2022-12-05T09:26:05;14.63;;;11.40;;
36411;SDS011;22445;52.100;5.176;2022-12-05T09:28:32;13.85;;;11.98;;
36411;SDS011;22445;52.100;5.176;2022-12-05T09:31:00;13.63;;;10.80;;
36411;SDS011;22445;52.100;5.176;2022-12-05T09:33:27;14.25;;;11.35;;
36411;SDS011;22445;52.100;5.176;2022-12-05T09:35:53;14.65;;;10.23;;
36411;SDS011;22445;52.100;5.176;2022-12-05T09:38:19;11.45;;;9.68;;
36411;SDS011;22445;52.100;5.176;2022-12-05T09:40:45;12.77;;;9.88;;
36411;SDS011;22445;52.100;5.176;2022-12-05T09:43:23;14.15;;;10.63;;
36411;SDS011;22445;52.100;5.176;2022-12-05T09:45:53;14.52;;;11.25;;
36411;SDS011;22445;52.100;5.176;2022-12-05T09:48:48;11.82;;;10.23;;
36411;SDS011;22445;52.100;5.176;2022-12-05T09:51:15;12.90;;;10.73;;
36411;SDS011;22445;52.100;5.176;2022-12-05T09:53:41;13.82;;;10.95;;
36411;SDS011;22445;52.100;5.176;2022-12-05T09:58:56;12.32;;;10.10;;
36411;SDS011;22445;52.100;5.176;2022-12-05T10:13:29;10.70;;;8.82;;
36411;SDS011;22445;52.100;5.176;2022-12-05T10:16:34;11.65;;;9.50;;
36411;SDS011;22445;52.100;5.176;2022-12-05T10:19:05;10.45;;;8.82;;
36411;SDS011;22445;52.100;5.176;2022-12-05T10:21:44;10.55;;;8.95;;
36411;SDS011;22445;52.100;5.176;2022-12-05T10:24:16;10.23;;;8.95;;
36411;SDS011;22445;52.100;5.176;2022-12-05T10:26:55;8.07;;;7.28;;
36411;SDS011;22445;52.100;5.176;2022-12-05T10:29:43;9.30;;;7.80;;
36411;SDS011;22445;52.100;5.176;2022-12-05T10:32:12;8.80;;;6.93;;
36411;SDS011;22445;52.100;5.176;2022-12-05T10:34:42;10.35;;;8.15;;
36411;SDS011;22445;52.100;5.176;2022-12-05T10:37:15;9.38;;;7.57;;
36411;SDS011;22445;52.100;5.176;2022-12-05T10:39:42;8.10;;;6.70;;
36411;SDS011;22445;52.100;5.176;2022-12-05T10:42:11;7.95;;;7.00;;
36411;SDS011;22445;52.100;5.176;2022-12-05T10:44:39;9.30;;;6.65;;
36411;SDS011;22445;52.100;5.176;2022-12-05T10:47:05;8.52;;;6.35;;
36411;SDS011;22445;52.100;5.176;2022-12-05T10:49:30;7.65;;;6.80;;
36411;SDS011;22445;52.100;5.176;2022-12-05T10:51:57;7.10;;;6.40;;
36411;SDS011;22445;52.100;5.176;2022-12-05T10:54:24;7.57;;;6.10;;
36411;SDS011;22445;52.100;5.176;2022-12-05T10:56:53;7.75;;;5.70;;
36411;SDS011;22445;52.100;5.176;2022-12-05T10:59:25;6.47;;;5.75;;
36411;SDS011;22445;52.100;5.176;2022-12-05T11:02:44;6.15;;;5.28;;
36411;SDS011;22445;52.100;5.176;2022-12-05T11:05:03;7.00;;;5.43;;
36411;SDS011;22445;52.100;5.176;2022-12-05T11:07:32;7.45;;;5.38;;
36411;SDS011;22445;52.100;5.176;2022-12-05T11:10:01;5.97;;;5.32;;
36411;SDS011;22445;52.100;5.176;2022-12-05T11:21:15;5.97;;;5.38;;
36411;SDS011;22445;52.100;5.176;2022-12-05T11:23:43;5.55;;;4.95;;
36411;SDS011;22445;52.100;5.176;2022-12-05T11:26:16;5.47;;;4.60;;
36411;SDS011;22445;52.100;5.176;2022-12-05T11:29:01;6.32;;;4.75;;
36411;SDS011;22445;52.100;5.176;2022-12-05T11:31:29;5.07;;;4.57;;
36411;SDS011;22445;52.100;5.176;2022-12-05T11:36:42;5.88;;;4.97;;
36411;SDS011;22445;52.100;5.176;2022-12-05T11:39:12;6.28;;;4.95;;
36411;SDS011;22445;52.100;5.176;2022-12-05T11:41:44;5.80;;;5.15;;
36411;SDS011;22445;52.100;5.176;2022-12-05T11:51:38;8.25;;;5.85;;
36411;SDS011;22445;52.100;5.176;2022-12-05T11:57:17;8.73;;;5.85;;
36411;SDS011;22445;52.100;5.176;2022-12-05T12:00:11;6.82;;;5.40;;
36411;SDS011;22445;52.100;5.176;2022-12-05T12:22:58;7.65;;;6.05;;
36411;SDS011;22445;52.100;5.176;2022-12-05T12:28:56;11.38;;;6.68;;
36411;SDS011;22445;52.100;5.176;2022-12-05T12:37:42;8.60;;;5.68;;
36411;SDS011;22445;52.100;5.176;2022-12-05T12:43:27;6.32;;;5.18;;
36411;SDS011;22445;52.100;5.176;2022-12-05T12:52:23;9.30;;;5.75;;
36411;SDS011;22445;52.100;5.176;2022-12-05T12:58:16;6.68;;;4.97;;
36411;SDS011;22445;52.100;5.176;2022-12-05T13:04:08;6.65;;;4.95;;
36411;SDS011;22445;52.100;5.176;2022-12-05T13:06:39;6.40;;;4.72;;
36411;SDS011;22445;52.100;5.176;2022-12-05T13:09:15;6.22;;;5.00;;
36411;SDS011;22445;52.100;5.176;2022-12-05T13:11:44;7.13;;;4.82;;
36411;SDS011;22445;52.100;5.176;2022-12-05T13:14:11;7.18;;;5.07;;
36411;SDS011;22445;52.100;5.176;2022-12-05T13:16:41;7.43;;;4.78;;
36411;SDS011;22445;52.100;5.176;2022-12-05T13:19:12;8.18;;;5.90;;
36411;SDS011;22445;52.100;5.176;2022-12-05T13:21:57;7.85;;;5.20;;
36411;SDS011;22445;52.100;5.176;2022-12-05T13:24:24;6.72;;;4.93;;
36411;SDS011;22445;52.100;5.176;2022-12-05T13:26:51;6.82;;;5.30;;
36411;SDS011;22445;52.100;5.176;2022-12-05T13:29:18;6.78;;;4.63;;
36411;SDS011;22445;52.100;5.176;2022-12-05T13:31:46;8.25;;;5.13;;
36411;SDS011;22445;52.100;5.176;2022-12-05T13:37:11;6.75;;;4.82;;
36411;SDS011;22445;52.100;5.176;2022-12-05T13:40:27;8.63;;;5.35;;
36411;SDS011;22445;52.100;5.176;2022-12-05T13:43:17;7.38;;;4.75;;
36411;SDS011;22445;52.100;5.176;2022-12-05T13:45:56;7.03;;;4.75;;
36411;SDS011;22445;52.100;5.176;2022-12-05T13:48:46;7.95;;;4.93;;
36411;SDS011;22445;52.100;5.176;2022-12-05T13:51:25;7.05;;;4.75;;
36411;SDS011;22445;52.100;5.176;2022-12-05T13:53:57;7.43;;;4.93;;
36411;SDS011;22445;52.100;5.176;2022-12-05T13:56:26;7.55;;;4.60;;
36411;SDS011;22445;52.100;5.176;2022-12-05T13:59:09;6.90;;;4.88;;
36411;SDS011;22445;52.100;5.176;2022-12-05T14:01:45;7.15;;;4.85;;
36411;SDS011;22445;52.100;5.176;2022-12-05T14:04:23;6.63;;;4.88;;
36411;SDS011;22445;52.100;5.176;2022-12-05T14:07:10;6.35;;;4.45;;
36411;SDS011;22445;52.100;5.176;2022-12-05T14:21:21;6.18;;;4.22;;
36411;SDS011;22445;52.100;5.176;2022-12-05T14:32:54;6.03;;;4.55;;
36411;SDS011;22445;52.100;5.176;2022-12-05T14:35:28;6.60;;;4.43;;
36411;SDS011;22445;52.100;5.176;2022-12-05T14:38:25;7.72;;;4.70;;
36411;SDS011;22445;52.100;5.176;2022-12-05T14:40:52;7.32;;;4.72;;
36411;SDS011;22445;52.100;5.176;2022-12-05T14:46:24;6.88;;;4.57;;
36411;SDS011;22445;52.100;5.176;2022-12-05T14:48:54;6.35;;;4.72;;
36411;SDS011;22445;52.100;5.176;2022-12-05T14:54:21;5.28;;;4.30;;
36411;SDS011;22445;52.100;5.176;2022-12-05T14:56:49;7.40;;;4.13;;
36411;SDS011;22445;52.100;5.176;2022-12-05T15:02:13;7.10;;;4.25;;
36411;SDS011;22445;52.100;5.176;2022-12-05T15:07:51;5.75;;;4.28;;
36411;SDS011;22445;52.100;5.176;2022-12-05T15:13:06;7.22;;;5.30;;
36411;SDS011;22445;52.100;5.176;2022-12-05T15:15:40;5.57;;;3.95;;
36411;SDS011;22445;52.100;5.176;2022-12-05T15:18:10;6.60;;;4.68;;
36411;SDS011;22445;52.100;5.176;2022-12-05T15:20:53;5.80;;;4.65;;
36411;SDS011;22445;52.100;5.176;2022-12-05T15:26:17;5.82;;;4.70;;
36411;SDS011;22445;52.100;5.176;2022-12-05T15:29:07;7.88;;;4.82;;
36411;SDS011;22445;52.100;5.176;2022-12-05T15:31:57;5.72;;;4.25;;
36411;SDS011;22445;52.100;5.176;2022-12-05T15:40:24;7.93;;;5.07;;
36411;SDS011;22445;52.100;5.176;2022-12-05T15:42:54;6.32;;;4.70;;
36411;SDS011;22445;52.100;5.176;2022-12-05T15:45:24;6.80;;;4.95;;
36411;SDS011;22445;52.100;5.176;2022-12-05T15:47:55;6.75;;;4.55;;
36411;SDS011;22445;52.100;5.176;2022-12-05T15:50:41;7.47;;;5.20;;
36411;SDS011;22445;52.100;5.176;2022-12-05T15:56:19;6.63;;;4.32;;
36411;SDS011;22445;52.100;5.176;2022-12-05T15:58:48;7.75;;;5.18;;
36411;SDS011;22445;52.100;5.176;2022-12-05T16:04:26;7.93;;;6.15;;
36411;SDS011;22445;52.100;5.176;2022-12-05T16:07:14;9.13;;;5.40;;
36411;SDS011;22445;52.100;5.176;2022-12-05T16:09:40;8.27;;;5.90;;
36411;SDS011;22445;52.100;5.176;2022-12-05T16:14:55;6.78;;;5.55;;
36411;SDS011;22445;52.100;5.176;2022-12-05T16:17:24;8.15;;;5.38;;
36411;SDS011;22445;52.100;5.176;2022-12-05T16:19:49;9.07;;;5.47;;
36411;SDS011;22445;52.100;5.176;2022-12-05T16:22:18;8.02;;;5.30;;
36411;SDS011;22445;52.100;5.176;2022-12-05T16:24:58;9.50;;;5.72;;
36411;SDS011;22445;52.100;5.176;2022-12-05T16:27:26;9.77;;;6.00;;
36411;SDS011;22445;52.100;5.176;2022-12-05T16:32:43;9.88;;;6.20;;
36411;SDS011;22445;52.100;5.176;2022-12-05T16:38:14;7.70;;;6.05;;
36411;SDS011;22445;52.100;5.176;2022-12-05T16:49:18;10.10;;;6.93;;
36411;SDS011;22445;52.100;5.176;2022-12-05T16:51:54;11.18;;;7.25;;
36411;SDS011;22445;52.100;5.176;2022-12-05T16:54:23;10.77;;;6.40;;
36411;SDS011;22445;52.100;5.176;2022-12-05T16:56:49;10.15;;;6.72;;
36411;SDS011;22445;52.100;5.176;2022-12-05T17:02:00;9.15;;;6.72;;
36411;SDS011;22445;52.100;5.176;2022-12-05T17:04:27;10.02;;;6.70;;
36411;SDS011;22445;52.100;5.176;2022-12-05T17:06:53;8.75;;;6.47;;
36411;SDS011;22445;52.100;5.176;2022-12-05T17:09:18;12.27;;;7.00;;
36411;SDS011;22445;52.100;5.176;2022-12-05T17:11:44;8.10;;;6.63;;
36411;SDS011;22445;52.100;5.176;2022-12-05T17:14:12;8.40;;;6.38;;
36411;SDS011;22445;52.100;5.176;2022-12-05T17:16:39;9.52;;;6.20;;
36411;SDS011;22445;52.100;5.176;2022-12-05T17:19:06;12.02;;;6.90;;
36411;SDS011;22445;52.100;5.176;2022-12-05T17:21:31;10.40;;;6.75;;
36411;SDS011;22445;52.100;5.176;2022-12-05T17:23:58;10.57;;;6.55;;
36411;SDS011;22445;52.100;5.176;2022-12-05T17:26:24;7.60;;;6.40;;
36411;SDS011;22445;52.100;5.176;2022-12-05T17:28:50;10.27;;;6.88;;
36411;SDS011;22445;52.100;5.176;2022-12-05T17:31:16;10.70;;;6.70;;
36411;SDS011;22445;52.100;5.176;2022-12-05T17:33:44;9.95;;;6.82;;
36411;SDS011;22445;52.100;5.176;2022-12-05T17:36:10;10.43;;;7.47;;
36411;SDS011;22445;52.100;5.176;2022-12-05T17:38:36;10.40;;;6.60;;
36411;SDS011;22445;52.100;5.176;2022-12-05T17:41:01;8.15;;;6.55;;
36411;SDS011;22445;52.100;5.176;2022-12-05T17:43:27;9.57;;;5.85;;
36411;SDS011;22445;52.100;5.176;2022-12-05T17:45:52;9.30;;;6.10;;
36411;SDS011;22445;52.100;5.176;2022-12-05T17:48:18;9.85;;;6.30;;
36411;SDS011;22445;52.100;5.176;2022-12-05T17:50:45;8.00;;;5.90;;
36411;SDS011;22445;52.100;5.176;2022-12-05T17:53:11;7.45;;;5.88;;
36411;SDS011;22445;52.100;5.176;2022-12-05T17:55:38;8.77;;;6.25;;
36411;SDS011;22445;52.100;5.176;2022-12-05T17:58:04;11.57;;;6.35;;
36411;SDS011;22445;52.100;5.176;2022-12-05T18:00:30;8.30;;;5.95;;
36411;SDS011;22445;52.100;5.176;2022-12-05T18:02:55;9.82;;;5.97;;
36411;SDS011;22445;52.100;5.176;2022-12-05T18:05:21;9.63;;;5.97;;
36411;SDS011;22445;52.100;5.176;2022-12-05T18:07:47;8.00;;;5.75;;
36411;SDS011;22445;52.100;5.176;2022-12-05T18:10:15;8.50;;;5.15;;
36411;SDS011;22445;52.100;5.176;2022-12-05T18:12:43;6.13;;;5.13;;
36411;SDS011;22445;52.100;5.176;2022-12-05T18:15:09;7.80;;;5.22;;
36411;SDS011;22445;52.100;5.176;2022-12-05T18:17:35;8.50;;;5.70;;
36411;SDS011;22445;52.100;5.176;2022-12-05T18:20:00;7.78;;;5.43;;
36411;SDS011;22445;52.100;5.176;2022-12-05T18:22:26;8.27;;;5.72;;
36411;SDS011;22445;52.100;5.176;2022-12-05T18:24:52;7.18;;;5.93;;
36411;SDS011;22445;52.100;5.176;2022-12-05T18:27:19;8.88;;;5.68;;